Flight Track Log - Related Links

Times and Time Zones

All times are in EDT time to prevent confusion due to time zone crossing. See the JBU661 flight status page for this flight to view local times or setup timezone preferences in your user account.

Time Position Orientation Groundspeed Altitude Reporting Facility
EDT Latitude Longitude Course Direction KTS MPH feet Rate Location/Type
Sat 04:11:58 PM 43.1069 -76.1547 212° Southwest 158 182 2,000  Level Boston Center
Sat 04:12:41 PM 43.0867 -76.2017 239° Southwest 185 213 2,900 2,367 Climbing Boston Center
Sat 04:13:47 PM 43.0222 -76.2575 212° Southwest 262 302 6,300 2,151 Climbing Boston Center
Sat 04:14:00 PM 42.8148 -76.4469 224° Southwest  Level FlightAware
Sat 04:15:00 PM 42.7066 -76.5394 210° Southwest  Level FlightAware
Sat 04:16:00 PM 42.6035 -76.6279 204° Southwest  Level FlightAware
Sat 04:16:13 PM 42.8581 -76.3922 211° Southwest 303 349 10,500  Level New Center
Sat 04:17:00 PM 42.4891 -76.7064 212° Southwest  Level FlightAware
Sat 04:17:13 PM 42.7781 -76.4586 211° Southwest 325 374 12,200  Level New Center
Sat 04:18:13 PM 42.6892 -76.5325 211° Southwest 355 409 14,700 2,380 Climbing New Center
Sat 04:19:14 PM 42.5981 -76.6061 211° Southwest 379 436 17,000 2,132 Climbing New Center
Sat 04:20:14 PM 42.5069 -76.6853 213° Southwest 392 451 19,000 1,714 Climbing New Center
Sat 04:21:13 PM 42.4028 -76.7714 211° Southwest 397 457 20,400 1,600 Climbing New Center
Sat 04:22:14 PM 42.3006 -76.8572 212° Southwest 416 479 22,200 1,587 Climbing New Center
Sat 04:23:14 PM 42.1986 -76.9375 210° Southwest 432 497 23,600 1,339 Climbing New Center
Sat 04:24:15 PM 42.0961 -77.0231 212° Southwest 432 497 24,900 1,240 Climbing New Center
Sat 04:25:15 PM 41.9917 -77.1108 212° Southwest 438 504 26,100 915 Climbing New Center
Sat 04:26:13 PM 41.8825 -77.2033 212° Southwest 449 517 26,700 454 Climbing New Center
Sat 04:27:14 PM 41.7669 -77.2981 211° Southwest 473 544 27,000 446 Climbing New Center
Sat 04:28:14 PM 41.6511 -77.3950 212° Southwest 488 562 27,600 1,190 Climbing New Center
Sat 04:29:15 PM 41.5375 -77.4919 213° Southwest 494 568 29,400 1,561 Climbing New Center
Sat 04:31:07 PM 41.3389 -77.6514 211° Southwest 471 542 32,100 1,256 Climbing Cleveland Center
Sat 04:32:07 PM 41.2306 -77.7392 211° Southwest 466 536 33,000 850 Climbing Cleveland Center
Sat 04:33:07 PM 41.1200 -77.8267 211° Southwest 466 536 33,800 500 Climbing Cleveland Center
Sat 04:34:07 PM 41.0117 -77.9167 212° Southwest 466 536 34,000 100 Climbing Cleveland Center
Sat 04:35:07 PM 40.9075 -78.0114 215° Southwest 466 536 34,000  Level Cleveland Center
Sat 04:36:07 PM 40.8247 -78.1328 228° Southwest 461 531 34,000 350 Level Cleveland Center
Sat 04:37:07 PM 40.7439 -78.2592 230° Southwest 450 518 34,700 800 Climbing Cleveland Center
Sat 04:38:07 PM 40.6631 -78.3825 229° Southwest 450 518 35,600 650 Climbing Cleveland Center
Sat 04:39:07 PM 40.5819 -78.5081 230° Southwest 450 518 36,000 200 Climbing Cleveland Center
Sat 04:40:07 PM 40.5050 -78.6306 230° Southwest 450 518 36,000  Level Cleveland Center
Sat 04:41:07 PM 40.4214 -78.7531 228° Southwest 450 518 36,000  Level Cleveland Center
Sat 04:42:07 PM 40.3419 -78.8750 230° Southwest 450 518 36,000  Level Cleveland Center
Sat 04:43:07 PM 40.2392 -78.9756 217° Southwest 451 519 36,000  Level Cleveland Center
Sat 04:44:07 PM 40.1342 -79.0706 215° Southwest 457 526 36,000  Level Cleveland Center
Sat 04:45:07 PM 40.0208 -79.1761 216° Southwest 463 533 36,000  Level Cleveland Center
Sat 04:47:13 PM 39.8064 -79.3731 215° Southwest 464 534 36,000  Level Washington Center
Sat 04:48:14 PM 39.7036 -79.4675 215° Southwest 457 526 36,000  Level Washington Center
Sat 04:49:12 PM 39.5786 -79.5225 199° South 456 525 36,000  Level Washington Center
Sat 04:50:13 PM 39.4483 -79.5586 192° South 470 541 36,000  Level Washington Center
Sat 04:51:14 PM 39.3181 -79.5944 192° South 481 554 36,000  Level Washington Center
Sat 04:52:14 PM 39.1831 -79.6350 193° South 487 560 36,000  Level Washington Center
Sat 04:53:12 PM 39.0528 -79.6706 192° South 487 560 36,000  Level Washington Center
Sat 04:54:12 PM 38.9200 -79.7139 194° South 493 567 36,000  Level Washington Center
Sat 04:55:13 PM 38.7872 -79.7517 193° South 493 567 36,000  Level Washington Center
Sat 04:56:14 PM 38.6714 -79.7850 193° South 493 567 36,000  Level Washington Center
Sat 04:57:14 PM 38.5389 -79.8200 192° South 493 567 36,000  Level Washington Center
Sat 04:58:15 PM 38.4081 -79.8578 193° South 493 567 36,000  Level Washington Center
Sat 04:59:12 PM 38.2631 -79.8917 190° South 487 560 36,000  Level Washington Center
Sat 05:00:13 PM 38.1306 -79.9211 190° South 487 560 36,000  Level Washington Center
Sat 05:01:13 PM 37.9981 -79.9531 191° South 487 560 36,000  Level Washington Center
Sat 05:02:13 PM 37.8803 -79.9803 190° South 487 560 36,000  Level Washington Center
Sat 05:03:14 PM 37.7478 -80.0119 191° South 487 560 36,000  Level Washington Center
Sat 05:04:12 PM 37.6131 -80.0408 190° South 487 560 36,000  Level Washington Center
Sat 05:05:12 PM 37.4658 -80.0742 190° South 487 560 36,000  Level Washington Center
Sat 05:06:13 PM 37.3311 -80.1053 190° South 487 560 36,000  Level Washington Center
Sat 05:07:14 PM 37.1967 -80.1339 190° South 487 560 36,000  Level Washington Center
Sat 05:08:14 PM 37.0767 -80.1606 190° South 487 560 36,000  Level Washington Center
Sat 05:08:32 PM 37.0150 -80.1708 188° South 492 566 36,000  Level Atlanta Center
Sat 05:09:32 PM 36.8950 -80.2000 191° South 502 578 36,000  Level Atlanta Center
Sat 05:10:32 PM 36.7603 -80.2272 189° South 502 578 36,000  Level Atlanta Center
Sat 05:11:32 PM 36.6236 -80.2572 190° South 502 578 36,000  Level Atlanta Center
Sat 05:12:32 PM 36.4764 -80.2872 189° South 502 578 36,000  Level Atlanta Center
Sat 05:13:32 PM 36.3439 -80.3192 191° South 502 578 36,000  Level Atlanta Center
Sat 05:14:32 PM 36.2092 -80.3486 190° South 502 578 36,000  Level Atlanta Center
Sat 05:15:32 PM 36.0747 -80.3778 190° South 502 578 36,000  Level Atlanta Center
Sat 05:16:32 PM 35.9522 -80.4039 190° South 502 578 36,000  Level Atlanta Center
Sat 05:17:32 PM 35.8197 -80.4328 190° South 491 565 36,000  Level Atlanta Center
Sat 05:18:32 PM 35.6869 -80.4619 190° South 491 565 36,000  Level Atlanta Center
Sat 05:19:32 PM 35.5522 -80.4906 190° South 491 565 36,000  Level Atlanta Center
Sat 05:20:32 PM 35.4008 -80.5228 190° South 497 572 36,000  Level Atlanta Center
Sat 05:22:23 PM 35.1522 -80.5772 190° South 520 598 36,000  Level Jacksonville Center
Sat 05:23:23 PM 35.0172 -80.6089 191° South 507 583 36,000  Level Jacksonville Center
Sat 05:24:23 PM 34.8803 -80.6378 190° South 496 571 36,000  Level Jacksonville Center
Sat 05:25:23 PM 34.7658 -80.6636 191° South 491 565 36,000  Level Jacksonville Center
Sat 05:26:23 PM 34.6142 -80.6953 190° South 493 567 36,000  Level Jacksonville Center
Sat 05:27:23 PM 34.4831 -80.7161 187° South 498 573 36,000  Level Jacksonville Center
Sat 05:28:23 PM 34.3478 -80.7272 184° South 493 567 36,000  Level Jacksonville Center
Sat 05:29:23 PM 34.2353 -80.7425 186° South 474 545 36,000  Level Jacksonville Center
Sat 05:30:23 PM 34.1022 -80.7583 186° South 468 539 36,000 -50 Level Jacksonville Center
Sat 05:31:23 PM 33.9708 -80.7717 185° South 474 545 35,900 -50 Descending Jacksonville Center
Sat 05:32:23 PM 33.8419 -80.7897 187° South 474 545 35,900 50 Level Jacksonville Center
Sat 05:33:23 PM 33.7106 -80.8053 186° South 481 554 36,000 50 Climbing Jacksonville Center
Sat 05:34:23 PM 33.5794 -80.8208 186° South 481 554 36,000  Level Jacksonville Center
Sat 05:35:23 PM 33.4461 -80.8364 186° South 481 554 36,000  Level Jacksonville Center
Sat 05:36:23 PM 33.3108 -80.8519 185° South 481 554 36,000  Level Jacksonville Center
Sat 05:37:23 PM 33.1794 -80.8675 186° South 481 554 36,000  Level Jacksonville Center
Sat 05:38:23 PM 33.0336 -80.8831 185° South 486 559 36,000  Level Jacksonville Center
Sat 05:39:23 PM 32.9022 -80.8983 186° South 481 554 36,000 -50 Level Jacksonville Center
Sat 05:40:23 PM 32.7689 -80.9136 186° South 481 554 35,900  Descending Jacksonville Center
Sat 05:41:23 PM 32.6378 -80.9289 186° South 481 554 36,000 50 Climbing Jacksonville Center
Sat 05:42:23 PM 32.5044 -80.9442 186° South 480 552 36,000  Level Jacksonville Center
Sat 05:43:23 PM 32.3753 -80.9592 186° South 479 551 36,000  Level Jacksonville Center
Sat 05:44:23 PM 32.2522 -80.9692 184° South 484 557 36,000  Level Jacksonville Center
Sat 05:45:23 PM 32.1167 -80.9842 185° South 484 557 36,000  Level Jacksonville Center
Sat 05:46:23 PM 31.9644 -81.0019 186° South 490 564 36,000 -650 Level Jacksonville Center
Sat 05:47:23 PM 31.8478 -81.0167 186° South 490 564 34,700 -1,000 Descending Jacksonville Center
Sat 05:48:23 PM 31.7019 -81.0342 186° South 478 550 34,000 -350 Descending Jacksonville Center
Sat 05:49:23 PM 31.5686 -81.0492 185° South 486 559 34,000 -150 Level Jacksonville Center
Sat 05:50:23 PM 31.4478 -81.0636 186° South 486 559 33,700 -700 Descending Jacksonville Center
Sat 05:51:23 PM 31.2975 -81.0811 186° South 481 554 32,600 -850 Descending Jacksonville Center
Sat 05:52:23 PM 31.1767 -81.0958 186° South 489 563 32,000 -300 Descending Jacksonville Center
Sat 05:53:23 PM 31.0392 -81.1128 186° South 489 563 32,000  Level Jacksonville Center
Sat 05:54:23 PM 30.9014 -81.1228 184° South 494 568 32,000  Level Jacksonville Center
Sat 05:55:23 PM 30.7619 -81.1422 187° South 500 575 32,000  Level Jacksonville Center
Sat 05:56:23 PM 30.6222 -81.1544 184° South 500 575 32,000  Level Jacksonville Center
Sat 05:57:23 PM 30.4864 -81.1497 178° South 495 570 32,000 -50 Level Jacksonville Center
Sat 05:58:23 PM 30.3464 -81.1450 178° South 501 577 31,900  Descending Jacksonville Center
Sat 05:59:23 PM 30.2064 -81.1403 178° South 501 577 32,000 50 Climbing Jacksonville Center
Sat 06:00:23 PM 30.0686 -81.1381 179° South 501 577 32,000 -50 Level Jacksonville Center
Sat 06:01:23 PM 29.9267 -81.1333 178° South 501 577 31,900 -1,800 Descending Jacksonville Center
Sat 06:02:23 PM 29.7908 -81.1289 178° South 495 570 28,400 -3,400 Descending Jacksonville Center
Sat 06:03:23 PM 29.6592 -81.1264 179° South 495 570 25,100 -3,300 Descending Jacksonville Center
Sat 06:04:23 PM 29.5319 -81.1239 179° South 475 547 21,800 -3,350 Descending Jacksonville Center
Sat 06:05:23 PM 29.4025 -81.1167 177° South 428 493 18,400 -3,500 Descending Jacksonville Center
Sat 06:06:23 PM 29.2856 -81.1142 179° South 421 484 14,800 -3,200 Descending Jacksonville Center
Sat 06:07:23 PM 29.1747 -81.1042 175° South 416 479 12,000 -1,400 Descending Jacksonville Center
Sat 06:08:23 PM 29.0764 -81.0964 176° South 376 433 12,000 -50 Level Jacksonville Center
Sat 06:09:23 PM 28.9908 -81.0861 174° South 323 372 11,900 -1,050 Descending Jacksonville Center
Sat 06:10:23 PM 28.9069 -81.0711 171° South 312 359 9,900 -2,051 Descending Jacksonville Center
Sat 06:11:20 PM 28.8333 -81.0500 166° South 294 338 7,900 -1,756 Descending Orlando TRACON
Sat 06:12:26 PM 28.7667 -81.0833 204° Southwest 259 298 6,300 -1,370 Descending Orlando TRACON
Sat 06:13:27 PM 28.7500 -81.1667 257° West 234 269 5,000 -1,537 Descending Orlando TRACON
Sat 06:14:27 PM 28.7500 -81.2333 270° West 235 270 3,200 -1,000 Descending Orlando TRACON
Sat 06:15:27 PM 28.6833 -81.2667 204° Southwest 231 266 3,000 -118 Descending Orlando TRACON
Sat 06:16:09 PM 28.6500 -81.2833 204° Southwest 227 261 3,000 -263 Level Orlando TRACON
Sat 06:17:21 PM 28.5667 -81.2833 180° South 223 257 2,500 -714 Descending Orlando TRACON
Sat 06:18:15 PM 28.5167 -81.2833 180° South 204 235 1,500 -950 Descending Orlando TRACON
Sat 06:19:21 PM 28.4667 -81.2833 180° South 133 153 600 -818 Descending Orlando TRACON
Sat 06:21:00 PM 28.4294 -81.3090 186° South  Level Estimated
Sat 06:28:00 PM 28.4294 -81.3090 186° South  Level Estimated
Sat 06:29:00 PM 28.4294 -81.3090 186° South  Level Estimated
Sat 06:30:00 PM 28.4294 -81.3090 186° South  Level Estimated
Sat 06:31:00 PM 28.4294 -81.3090 186° South  Level Estimated

Login

Don't have an account? Register now (free) for customized features, flight alerts, and more!